Houston, Texas
Traffic Map
Current Weather Conditions
Houston, Texas
Clear
Clear
84°
Feels Like: 90°
Wind Chill: 84° Ceiling: Unl
Heat Index: 90° Visibility: 10mi
Dew Point: 72° Wind: 0mph
Humidity: 66% Direction: ° ()
Pressure: 29.98in Gusts: 0mph
Raw Report DataKMCJ 240355Z AUTO 00000KT 10SM CLR 29/22 A2998 RMK AO1
Traffic Incident Summary
Active as of:
Severity:
Category:
InformationThere was an issue retrieving the traffic information for this location. Please try a different location or try again shortly.
Advertisements
Track Severe Weather on mobile